createdAt,value
2018-09-04T00:01:21.212Z,19.00
2018-09-04T00:03:31.466Z,20.43
2018-09-04T00:05:35.090Z,19.53
2018-09-04T00:07:39.747Z,19.67
2018-09-04T00:09:44.306Z,19.63
2018-09-04T00:11:49.808Z,19.50
2018-09-04T00:13:53.821Z,19.80
2018-09-04T00:16:06.018Z,21.73
2018-09-04T00:20:46.373Z,20.67
2018-09-04T00:22:48.445Z,21.17
2018-09-04T00:24:50.505Z,19.77
2018-09-04T00:26:52.565Z,20.80
2018-09-04T00:28:54.630Z,20.83
2018-09-04T00:30:56.629Z,19.80
2018-09-04T00:32:58.712Z,18.20
2018-09-04T00:35:00.773Z,18.70
2018-09-04T00:37:02.838Z,18.80
2018-09-04T00:39:05.054Z,19.43
2018-09-04T00:41:07.109Z,19.83
2018-09-04T00:43:09.174Z,18.80
2018-09-04T00:45:11.256Z,18.90
2018-09-04T00:47:13.325Z,18.63
2018-09-04T00:49:15.340Z,20.17
2018-09-04T00:51:17.425Z,20.20
2018-09-04T00:53:19.557Z,20.80
2018-09-04T00:55:21.609Z,19.80
2018-09-04T00:57:23.622Z,19.20
2018-09-04T00:59:25.672Z,17.93
2018-09-04T01:01:27.702Z,19.40
2018-09-04T01:03:29.745Z,18.90
2018-09-04T01:05:31.806Z,19.10
2018-09-04T01:07:33.849Z,19.40
2018-09-04T01:09:35.867Z,21.80
2018-09-04T01:11:37.910Z,21.00
2018-09-04T01:13:41.807Z,20.00
2018-09-04T01:15:43.833Z,21.60
2018-09-04T01:17:46.006Z,20.10
2018-09-04T01:19:48.129Z,21.80
2018-09-04T01:21:50.241Z,21.30
2018-09-04T01:23:52.294Z,19.80
2018-09-04T01:25:54.328Z,20.27
2018-09-04T01:27:56.352Z,20.33
2018-09-04T01:29:58.405Z,19.77
2018-09-04T01:32:00.618Z,20.90
2018-09-04T01:34:02.643Z,20.73
2018-09-04T01:36:04.696Z,20.17
2018-09-04T01:38:06.730Z,18.83
2018-09-04T01:40:08.762Z,18.00
2018-09-04T01:42:10.797Z,18.63
2018-09-04T01:44:12.826Z,21.30
2018-09-04T01:46:14.888Z,19.83
2018-09-04T01:48:16.932Z,19.77
2018-09-04T01:50:18.968Z,19.20
2018-09-04T01:52:21.017Z,19.60
2018-09-04T01:54:23.042Z,19.10
2018-09-04T01:56:25.141Z,19.00
2018-09-04T01:58:27.188Z,18.53
2018-09-04T02:00:29.232Z,19.77
2018-09-04T02:02:31.276Z,18.50
2018-09-04T02:04:33.353Z,19.83
2018-09-04T02:06:35.404Z,20.00
2018-09-04T02:08:37.429Z,20.00
2018-09-04T02:10:39.457Z,20.13
2018-09-04T02:12:41.504Z,20.00
2018-09-04T02:14:43.534Z,19.30
2018-09-04T02:16:45.567Z,20.50
2018-09-04T02:18:47.601Z,19.90
2018-09-04T02:20:49.605Z,20.97
2018-09-04T02:22:51.654Z,18.77
2018-09-04T02:24:53.709Z,20.30
2018-09-04T02:26:55.760Z,18.07
2018-09-04T02:28:57.835Z,17.77
2018-09-04T02:30:59.973Z,18.63
2018-09-04T02:33:02.111Z,17.60
2018-09-04T02:35:04.282Z,18.53
2018-09-04T02:37:06.300Z,18.97
2018-09-04T02:39:09.614Z,21.00
2018-09-04T02:41:11.664Z,19.47
2018-09-04T02:43:13.733Z,18.27
2018-09-04T02:45:15.793Z,18.37
2018-09-04T02:47:17.858Z,17.53
2018-09-04T02:49:19.889Z,18.03
2018-09-04T02:51:21.914Z,18.33
2018-09-04T02:53:23.952Z,18.80
2018-09-04T02:55:26.006Z,18.00
2018-09-04T02:57:28.053Z,17.17
2018-09-04T02:59:30.086Z,19.30
2018-09-04T03:01:32.125Z,18.60
2018-09-04T03:03:34.262Z,18.53
2018-09-04T03:05:36.269Z,18.50
2018-09-04T03:07:38.293Z,18.63
2018-09-04T03:09:40.353Z,18.83
2018-09-04T03:11:42.402Z,17.83
2018-09-04T03:13:44.456Z,17.30
2018-09-04T03:15:46.517Z,19.70
2018-09-04T03:17:48.587Z,22.07
2018-09-04T03:19:50.732Z,22.33
2018-09-04T03:21:52.754Z,21.10
2018-09-04T03:23:54.789Z,17.53
2018-09-04T03:25:56.824Z,19.30
2018-09-04T03:27:58.889Z,18.10
2018-09-04T03:30:00.965Z,18.80
2018-09-04T03:32:03.005Z,20.97
2018-09-04T03:34:05.080Z,20.67
2018-09-04T03:36:07.099Z,20.30
2018-09-04T03:38:09.177Z,18.73
2018-09-04T03:40:11.397Z,19.43
2018-09-04T03:42:13.516Z,17.30
2018-09-04T03:44:15.615Z,17.07
2018-09-04T03:46:17.633Z,17.73
2018-09-04T03:48:19.739Z,19.93
2018-09-04T03:50:21.813Z,18.57
2018-09-04T03:52:23.925Z,18.37
2018-09-04T03:54:25.926Z,17.73
2018-09-04T03:56:27.969Z,17.50
2018-09-04T03:58:30.018Z,17.53
2018-09-04T04:00:32.062Z,12.10
2018-09-04T04:02:34.100Z,7.70
2018-09-04T04:04:36.171Z,12.00
2018-09-04T04:06:38.227Z,12.57
2018-09-04T04:08:40.286Z,12.33
2018-09-04T04:10:42.331Z,15.73
2018-09-04T04:12:44.408Z,18.33
2018-09-04T04:14:46.597Z,17.70
2018-09-04T04:16:48.662Z,20.60
2018-09-04T04:18:50.849Z,17.30
2018-09-04T04:20:57.990Z,17.13
2018-09-04T04:23:00.037Z,17.20
2018-09-04T04:25:02.162Z,19.43
2018-09-04T04:27:04.658Z,16.70
2018-09-04T04:31:41.629Z,16.90
2018-09-04T04:33:43.677Z,18.70
2018-09-04T04:35:45.770Z,19.00
2018-09-04T04:37:47.949Z,19.43
2018-09-04T04:39:49.993Z,17.90
2018-09-04T04:41:52.056Z,18.30
2018-09-04T04:43:54.093Z,18.13
2018-09-04T04:45:56.132Z,18.80
2018-09-04T04:47:58.262Z,17.60
2018-09-04T04:50:00.246Z,17.40
2018-09-04T04:52:02.337Z,18.60
2018-09-04T04:54:04.486Z,19.80
2018-09-04T04:56:06.555Z,18.27
2018-09-04T04:58:08.615Z,18.93
2018-09-04T05:00:10.681Z,19.97
2018-09-04T05:02:12.733Z,20.00
2018-09-04T05:04:14.789Z,20.00
2018-09-04T05:06:16.818Z,20.60
2018-09-04T05:08:18.857Z,19.03
2018-09-04T05:10:20.937Z,20.43
2018-09-04T05:12:23.297Z,19.20
2018-09-04T05:14:25.335Z,19.97
2018-09-04T05:16:27.384Z,17.93
2018-09-04T05:18:29.437Z,19.93
2018-09-04T05:20:31.520Z,18.63
2018-09-04T05:22:33.659Z,19.03
2018-09-04T05:24:35.641Z,18.27
2018-09-04T05:26:37.701Z,18.60
2018-09-04T05:28:39.860Z,16.73
2018-09-04T05:30:41.969Z,17.40
2018-09-04T05:33:47.428Z,18.20
2018-09-04T05:35:52.161Z,18.80
2018-09-04T05:37:54.235Z,19.50
2018-09-04T05:39:56.380Z,20.40
2018-09-04T05:42:04.101Z,18.00
2018-09-04T05:44:06.219Z,19.57
2018-09-04T05:46:11.364Z,20.13
2018-09-04T05:48:14.737Z,19.00
2018-09-04T05:50:16.868Z,20.67
2018-09-04T05:52:18.926Z,20.27
2018-09-04T05:54:21.032Z,18.70
2018-09-04T05:56:23.126Z,20.07
2018-09-04T05:58:25.173Z,18.73
2018-09-04T06:00:30.501Z,19.73
2018-09-04T06:02:32.565Z,19.40
2018-09-04T06:04:34.637Z,21.23
2018-09-04T06:06:36.694Z,19.63
2018-09-04T06:08:38.730Z,19.93
2018-09-04T06:10:40.780Z,20.67
2018-09-04T06:12:42.828Z,18.80
2018-09-04T06:14:44.973Z,21.43
2018-09-04T06:16:47.017Z,20.17
2018-09-04T06:18:49.048Z,19.97
2018-09-04T06:20:51.101Z,17.97
2018-09-04T06:22:53.162Z,17.40
2018-09-04T06:24:55.224Z,16.87
2018-09-04T06:26:57.323Z,17.20
2018-09-04T06:28:59.404Z,17.80
2018-09-04T06:31:02.317Z,15.77
2018-09-04T06:33:04.409Z,17.73
2018-09-04T06:35:06.591Z,16.70
2018-09-04T06:37:08.695Z,17.10
2018-09-04T06:39:11.188Z,17.10
2018-09-04T06:41:13.309Z,15.90
2018-09-04T06:43:15.420Z,16.47
2018-09-04T06:45:17.492Z,18.10
2018-09-04T06:47:19.597Z,16.80
2018-09-04T06:49:21.659Z,16.30
2018-09-04T06:51:23.709Z,17.37
2018-09-04T06:53:25.861Z,18.40
2018-09-04T06:55:27.937Z,18.10
2018-09-04T06:57:30.181Z,17.67
2018-09-04T06:59:32.249Z,17.23
2018-09-04T07:01:34.344Z,17.83
2018-09-04T07:03:36.417Z,17.53
2018-09-04T07:05:38.497Z,17.73
2018-09-04T07:07:41.126Z,16.90
2018-09-04T07:09:43.177Z,18.80
2018-09-04T07:11:45.263Z,17.83
2018-09-04T07:13:47.362Z,17.23
2018-09-04T07:15:49.426Z,18.00
2018-09-04T07:17:51.534Z,17.07
2018-09-04T07:19:53.610Z,17.87
2018-09-04T07:21:56.345Z,18.50
2018-09-04T07:23:58.470Z,19.23
2018-09-04T07:26:00.516Z,18.43
2018-09-04T07:28:02.594Z,18.33
2018-09-04T07:30:05.321Z,18.67
2018-09-04T07:32:07.372Z,17.90
2018-09-04T07:34:09.441Z,16.40
2018-09-04T07:36:11.543Z,17.90
2018-09-04T07:38:13.649Z,17.13
2018-09-04T07:40:15.744Z,17.77
2018-09-04T07:42:17.819Z,17.37
2018-09-04T07:44:19.869Z,18.63
2018-09-04T07:46:21.943Z,17.43
2018-09-04T07:48:23.993Z,17.37
2018-09-04T07:50:26.033Z,17.67
2018-09-04T07:52:28.113Z,18.63
2018-09-04T07:54:30.180Z,18.23
2018-09-04T07:56:32.284Z,16.10
2018-09-04T07:58:34.341Z,17.60
2018-09-04T08:00:36.389Z,17.43
2018-09-04T08:02:38.457Z,16.10
2018-09-04T08:04:40.521Z,18.20
2018-09-04T08:06:42.618Z,17.27
2018-09-04T08:08:44.667Z,19.07
2018-09-04T08:10:46.779Z,17.20
2018-09-04T08:12:48.857Z,17.63
2018-09-04T08:14:50.922Z,17.97
2018-09-04T08:16:52.981Z,18.83
2018-09-04T08:18:55.042Z,18.43
2018-09-04T08:20:57.211Z,18.10
2018-09-04T08:22:59.229Z,17.83
2018-09-04T08:25:01.308Z,19.03
2018-09-04T08:27:03.395Z,17.67
2018-09-04T08:29:05.469Z,20.20
2018-09-04T08:31:07.578Z,20.10
2018-09-04T08:33:09.700Z,19.63
2018-09-04T08:35:11.696Z,20.77
2018-09-04T08:39:49.658Z,20.57
2018-09-04T08:41:51.673Z,20.17
2018-09-04T08:43:53.793Z,20.47
2018-09-04T08:45:55.862Z,20.10
2018-09-04T08:48:00.093Z,21.70
2018-09-04T08:50:02.168Z,19.57
2018-09-04T08:52:04.286Z,21.00
2018-09-04T08:54:06.337Z,20.50
2018-09-04T08:56:08.409Z,21.23
2018-09-04T08:58:10.444Z,22.10
2018-09-04T09:00:13.362Z,21.93
2018-09-04T09:02:15.459Z,23.47
2018-09-04T09:04:17.505Z,23.23
2018-09-04T09:06:19.553Z,23.77
2018-09-04T09:08:21.655Z,24.07
2018-09-04T09:10:23.785Z,22.57
2018-09-04T09:12:25.876Z,23.40
2018-09-04T09:14:27.965Z,22.50
2018-09-04T09:16:29.988Z,23.43
2018-09-04T09:18:32.050Z,22.87
2018-09-04T09:20:34.130Z,21.80
2018-09-04T09:22:36.217Z,22.67
2018-09-04T09:24:38.271Z,20.33
2018-09-04T09:26:41.386Z,20.73
2018-09-04T09:28:43.477Z,18.30
2018-09-04T09:30:45.545Z,19.80
2018-09-04T09:32:47.594Z,16.40
2018-09-04T09:34:49.644Z,18.27
2018-09-04T09:36:51.844Z,19.83
2018-09-04T09:38:53.913Z,17.83
2018-09-04T09:40:55.981Z,17.10
2018-09-04T09:42:58.062Z,16.50
2018-09-04T09:45:00.115Z,19.23
2018-09-04T09:47:03.357Z,18.67
2018-09-04T09:49:05.434Z,16.73
2018-09-04T09:51:08.097Z,16.67
2018-09-04T09:53:10.327Z,18.00
2018-09-04T09:55:12.269Z,17.53
2018-09-04T09:57:14.338Z,17.70
2018-09-04T09:59:16.421Z,15.70
2018-09-04T10:01:24.261Z,16.60
2018-09-04T10:03:32.062Z,16.57
2018-09-04T10:05:34.143Z,16.50
2018-09-04T10:07:36.273Z,15.93
2018-09-04T10:09:38.330Z,16.67
2018-09-04T10:11:40.448Z,15.30
2018-09-04T10:13:42.517Z,16.53
2018-09-04T10:15:44.598Z,15.83
2018-09-04T10:17:46.697Z,16.30
2018-09-04T10:19:48.807Z,15.30
2018-09-04T10:21:50.880Z,17.00
2018-09-04T10:23:52.957Z,14.63
2018-09-04T10:25:55.058Z,14.80
2018-09-04T10:27:57.165Z,16.07
2018-09-04T10:29:59.275Z,13.20
2018-09-04T10:32:01.345Z,15.17
2018-09-04T10:34:03.415Z,16.20
2018-09-04T10:36:05.479Z,14.60
2018-09-04T10:38:07.558Z,15.03
2018-09-04T10:40:15.457Z,13.33
2018-09-04T10:42:24.071Z,13.10
2018-09-04T10:44:30.762Z,14.73
2018-09-04T10:46:32.813Z,14.07
2018-09-04T10:48:34.865Z,14.77
2018-09-04T10:50:36.913Z,14.40
2018-09-04T10:52:39.005Z,14.43
2018-09-04T10:54:41.178Z,14.40
2018-09-04T10:56:43.273Z,14.10
2018-09-04T10:58:45.362Z,15.27
2018-09-04T11:00:47.423Z,14.40
2018-09-04T11:02:49.497Z,14.07
2018-09-04T11:04:51.637Z,13.07
2018-09-04T11:06:53.720Z,14.43
2018-09-04T11:08:55.796Z,14.70
2018-09-04T11:10:57.854Z,16.60
2018-09-04T11:12:59.934Z,16.60
2018-09-04T11:15:02.010Z,15.30
2018-09-04T11:17:04.071Z,13.93
2018-09-04T11:19:06.244Z,14.57
2018-09-04T11:21:08.301Z,13.87
2018-09-04T11:23:10.382Z,15.10
2018-09-04T11:25:12.481Z,15.30
2018-09-04T11:27:14.581Z,15.80
2018-09-04T11:29:16.705Z,14.83
2018-09-04T11:31:18.814Z,16.20
2018-09-04T11:33:20.886Z,13.70
2018-09-04T11:35:22.983Z,16.10
2018-09-04T11:37:25.062Z,14.20
2018-09-04T11:39:27.173Z,15.97
2018-09-04T11:41:29.358Z,15.13
2018-09-04T11:43:32.462Z,14.37
2018-09-04T11:45:34.624Z,15.23
2018-09-04T11:47:36.845Z,14.50
2018-09-04T11:49:39.525Z,15.20
2018-09-04T11:51:41.606Z,16.87
2018-09-04T11:53:43.670Z,15.73
2018-09-04T11:55:45.741Z,15.40
2018-09-04T11:57:47.831Z,15.27
2018-09-04T11:59:49.894Z,15.33
2018-09-04T12:01:55.080Z,14.67
2018-09-04T12:03:57.141Z,13.93
2018-09-04T12:05:59.235Z,14.60
2018-09-04T12:08:01.291Z,15.63
2018-09-04T12:10:03.435Z,15.83
2018-09-04T12:12:05.485Z,14.03
2018-09-04T12:14:07.561Z,15.27
2018-09-04T12:16:09.637Z,14.40
2018-09-04T12:18:11.709Z,15.40
2018-09-04T12:20:46.278Z,15.53
2018-09-04T12:22:48.281Z,14.83
2018-09-04T12:24:51.093Z,14.87
2018-09-04T12:26:53.141Z,15.07
2018-09-04T12:28:55.154Z,13.70
2018-09-04T12:30:58.076Z,13.60
2018-09-04T12:33:00.894Z,15.23
2018-09-04T12:35:02.946Z,14.97
2018-09-04T12:37:05.030Z,14.00
2018-09-04T12:39:07.114Z,15.40
2018-09-04T12:41:14.937Z,15.33
2018-09-04T12:43:16.977Z,13.87
2018-09-04T12:45:19.053Z,13.90
2018-09-04T12:47:21.112Z,14.73
2018-09-04T12:49:23.185Z,14.27
2018-09-04T12:51:25.236Z,15.07
2018-09-04T12:53:28.135Z,14.30
2018-09-04T15:18:52.346Z,12.93
2018-09-04T15:27:00.661Z,14.00
2018-09-04T17:17:25.021Z,11.27
2018-09-04T17:19:27.049Z,11.20
2018-09-04T17:21:29.085Z,11.77
2018-09-04T17:23:31.130Z,10.90
2018-09-04T17:25:33.177Z,12.00
2018-09-04T17:27:35.224Z,11.50
2018-09-04T17:29:37.257Z,11.17
2018-09-04T17:31:39.340Z,10.83
2018-09-04T17:33:41.389Z,11.20
2018-09-04T17:35:43.432Z,10.97
2018-09-04T17:37:45.474Z,10.67
2018-09-04T17:39:47.524Z,10.37
2018-09-04T17:41:49.612Z,10.50
2018-09-04T17:43:51.658Z,9.77
2018-09-04T17:45:53.741Z,9.60
2018-09-04T17:47:55.799Z,10.40
2018-09-04T17:49:57.837Z,10.13
2018-09-04T17:51:59.882Z,10.23
2018-09-04T17:54:01.914Z,10.00
2018-09-04T22:21:11.796Z,8.30
2018-09-04T22:23:19.772Z,8.37
2018-09-04T22:25:26.883Z,8.00
2018-09-04T23:06:57.544Z,8.00
2018-09-04T23:08:59.565Z,8.50
2018-09-04T23:11:01.653Z,8.50
2018-09-04T23:13:03.710Z,8.07
2018-09-04T23:15:05.778Z,7.60
2018-09-04T23:17:07.813Z,7.83
2018-09-04T23:19:09.841Z,7.53
2018-09-04T23:21:11.876Z,7.93
2018-09-04T23:23:13.943Z,7.30
2018-09-04T23:25:15.988Z,8.33
2018-09-04T23:27:18.294Z,7.80
2018-09-04T23:29:20.341Z,7.10
2018-09-04T23:31:22.381Z,7.60
2018-09-04T23:33:24.428Z,7.67
2018-09-04T23:35:26.493Z,7.60
2018-09-04T23:37:28.573Z,8.00
2018-09-04T23:39:30.635Z,7.57
2018-09-04T23:41:32.685Z,7.30
2018-09-04T23:43:34.745Z,7.50
2018-09-04T23:45:36.771Z,7.93
2018-09-04T23:47:39.098Z,8.03
2018-09-04T23:49:41.161Z,8.10
2018-09-04T23:51:43.208Z,8.07
2018-09-04T23:53:45.273Z,7.77
2018-09-04T23:55:47.289Z,8.23
2018-09-04T23:57:49.346Z,7.60
2018-09-04T23:59:51.409Z,8.70
